TimeMST,TemperatureF,Dew PointF,Humidity,Sea Level PressureIn,VisibilityMPH,Wind Direction,Wind SpeedMPH,Gust SpeedMPH,PrecipitationIn,Events,Conditions,WindDirDegrees,DateUTC
12:53 AM,43.0,37.0,80,29.95,10.0,SE,6.9,-,N/A,,Overcast,140,2012-12-31 07:53:00
1:53 AM,42.1,37.9,85,29.94,10.0,ESE,5.8,-,N/A,,Mostly Cloudy,110,2012-12-31 08:53:00
2:53 AM,42.1,39.0,89,29.96,10.0,SE,5.8,-,N/A,,Mostly Cloudy,130,2012-12-31 09:53:00
3:53 AM,42.1,39.0,89,29.97,10.0,SE,6.9,-,N/A,,Clear,130,2012-12-31 10:53:00
5:53 AM,41.0,37.9,89,30.00,10.0,Calm,Calm,-,N/A,,Mostly Cloudy,0,2012-12-31 12:53:00
6:53 AM,39.9,37.0,89,30.03,10.0,East,4.6,-,N/A,,Clear,100,2012-12-31 13:53:00
7:53 AM,39.9,37.0,89,30.06,10.0,SSE,5.8,-,N/A,,Clear,150,2012-12-31 14:53:00
8:53 AM,43.0,37.9,82,30.08,10.0,Calm,Calm,-,N/A,,Scattered Clouds,0,2012-12-31 15:53:00
9:08 AM,42.8,37.4,81,30.10,10.0,Calm,Calm,-,N/A,,Mostly Cloudy,0,2012-12-31 16:08:00
9:25 AM,42.8,37.4,81,30.10,10.0,Calm,Calm,-,N/A,,Overcast,0,2012-12-31 16:25:00
9:53 AM,43.0,37.9,82,30.11,10.0,Calm,Calm,-,N/A,,Mostly Cloudy,0,2012-12-31 16:53:00
10:27 AM,44.6,39.2,81,30.12,10.0,Calm,Calm,-,N/A,,Scattered Clouds,0,2012-12-31 17:27:00
10:53 AM,46.0,37.9,73,30.12,10.0,Calm,Calm,-,N/A,,Mostly Cloudy,0,2012-12-31 17:53:00
11:00 AM,44.6,37.4,76,30.13,10.0,West,3.5,-,N/A,,Partly Cloudy,270,2012-12-31 18:00:00
11:53 AM,46.9,36.0,66,30.12,10.0,SSW,4.6,-,N/A,,Clear,200,2012-12-31 18:53:00
12:36 PM,48.2,33.8,58,30.11,10.0,SW,8.1,-,N/A,,Partly Cloudy,230,2012-12-31 19:36:00
12:53 PM,48.9,32.0,52,30.10,10.0,West,5.8,-,N/A,,Scattered Clouds,270,2012-12-31 19:53:00
1:53 PM,51.1,30.0,44,30.08,10.0,West,6.9,17.3,N/A,,Partly Cloudy,260,2012-12-31 20:53:00
2:53 PM,52.0,30.0,43,30.08,10.0,SSW,12.7,-,N/A,,Mostly Cloudy,210,2012-12-31 21:53:00
3:53 PM,52.0,28.9,41,30.09,10.0,SW,8.1,-,N/A,,Scattered Clouds,230,2012-12-31 22:53:00
4:53 PM,51.1,26.1,38,30.10,10.0,SSW,6.9,-,N/A,,Partly Cloudy,210,2012-12-31 23:53:00
5:53 PM,48.9,26.1,41,30.12,10.0,SSW,3.5,-,N/A,,Clear,200,2013-01-01 00:53:00
6:53 PM,48.0,25.0,41,30.12,10.0,South,3.5,-,N/A,,Clear,180,2013-01-01 01:53:00
7:53 PM,46.0,24.1,42,30.15,10.0,South,3.5,-,N/A,,Clear,180,2013-01-01 02:53:00
8:53 PM,44.1,24.1,45,30.15,10.0,Calm,Calm,-,N/A,,Clear,0,2013-01-01 03:53:00
9:53 PM,42.1,25.0,51,30.17,10.0,Calm,Calm,-,N/A,,Clear,0,2013-01-01 04:53:00
10:53 PM,39.0,26.1,60,30.18,9.0,East,4.6,-,N/A,,Clear,90,2013-01-01 05:53:00
11:53 PM,36.0,27.0,70,30.19,10.0,East,3.5,-,N/A,,Clear,100,2013-01-01 06:53:00